Davisburg, Kentucky
Current Conditions -  °F | °C
As of 7:15 AM on Thursday 23 Oct 2014 (Local Time) from K1A6 Reporting Station
Overcast Overcast  
Wind Chill: 47°   Ceiling: 2600
Heat Index: 47°   Visibility: 10mi
Dew Point: 39°   Wind: 0mph
Humidity: 73%   Direction: NA
Pressure: 30.23"   Gusts: NA
Location:  36.7417°N, 83.6911°W
Report Text: K1A6 231115Z AUTO 00000KT 10SM OVC026 09/04 A3023 RMK AO2 T00850040
Loading
Personal Weather Stations






























Interactive Weather Map New forecast layout! Learn more

10-Day Weather Forecast

Advertisements
Track Severe Weather on mobile